Bald Eagle
, Park City
Last Weather Update:12/31/2011
Date
ETo
ETc
Rain
Irrigation
Req
Temp
Max
Temp
Min
Temp
Avg
Avg RH
Avg Wind
Avg Solar
inches
inches
incehs
inches
F
F
F
%
%
watts/m2
11/01/2011 0.02" 0.00" 0.00" 0.00" 43.4° 16.8° 27.4° 80.7% 7.0 MPH 56.9w/m2
11/02/2011 0.05" 0.00" 0.10" -0.08" 33.1° 13.2° 21.8° 55.2% 4.5 MPH 158.4w/m2
11/03/2011 0.08" 0.00" 0.01" -0.01" 41.1° 23.7° 31.3° 42.2% 8.3 MPH 146.3w/m2
11/04/2011 0.06" 0.00" 0.00" 0.00" 44.4° 23.7° 32.8° 98.5% 6.3 MPH 108.2w/m2
11/05/2011 0.03" 0.00" 0.00" 0.00" 24.0° 12.9° 17.9° 84.8% 5.2 MPH 131.2w/m2
11/06/2011 0.02" 0.00" 0.00" 0.00" 29.2° 12.8° 19.1° 92.3% 2.9 MPH 65.3w/m2
11/07/2011 0.02" 0.00" 0.00" 0.00" 26.6° 18.0° 20.8° 97.0% 4.1 MPH 69.9w/m2
11/08/2011 0.04" 0.00" 0.01" -0.01" 27.2° 12.9° 19.0° 80.6% 2.2 MPH 138.0w/m2
11/09/2011 0.05" 0.00" 0.01" -0.01" 38.7° 14.1° 26.2° 18.4% 2.2 MPH 142.8w/m2
11/10/2011 0.09" 0.00" 0.00" 0.00" 44.6° 28.2° 34.8° 15.0% 5.6 MPH 145.6w/m2
11/11/2011 0.06" 0.00" 0.00" 0.00" 41.3° 29.9° 34.2° 62.9% 5.3 MPH 105.1w/m2
11/12/2011 0.02" 0.00" 0.01" -0.01" 31.9° 21.1° 27.6° 91.7% 8.3 MPH 39.2w/m2
11/13/2011 0.03" 0.00" 0.27" -0.22" 35.5° 24.8° 28.3° 53.2% 5.0 MPH 78.2w/m2
11/14/2011 0.07" 0.00" 0.00" 0.00" 39.6° 25.8° 30.9° 33.0% 4.8 MPH 137.9w/m2
11/15/2011 0.03" 0.00" 0.00" 0.00" 30.3° 21.3° 25.6° 70.2% 4.8 MPH 53.1w/m2
11/16/2011 0.05" 0.00" 0.00" 0.00" 34.4° 14.6° 23.8° 28.9% 3.5 MPH 133.8w/m2
11/17/2011 0.06" 0.00" 0.00" 0.00" 42.5° 26.2° 32.8° 47.6% 6.9 MPH 119.0w/m2
11/18/2011 0.04" 0.00" 0.00" 0.00" 37.4° 19.7° 31.7° 97.4% 8.9 MPH 40.7w/m2
11/19/2011 0.03" 0.00" 0.06" -0.05" 26.3° 14.5° 19.9° 84.5% 4.5 MPH 89.8w/m2
11/20/2011 0.02" 0.00" 0.09" -0.07" 30.9° 22.5° 27.7° 76.5% 5.5 MPH 55.2w/m2
11/21/2011 0.02" 0.00" 0.18" -0.14" 35.6° 24.1° 28.3° 72.0% 1.9 MPH 72.3w/m2
11/22/2011 0.04" 0.00" 0.08" -0.06" 37.3° 24.9° 30.5° 48.4% 5.6 MPH 109.6w/m2
11/23/2011 0.08" 0.00" 0.00" 0.00" 46.5° 33.2° 38.2° 43.0% 8.1 MPH 113.8w/m2
11/24/2011 0.05" 0.00" 0.00" 0.00" 41.8° 30.8° 36.7° 57.8% 5.9 MPH 82.5w/m2
11/25/2011 0.03" 0.00" 0.01" -0.01" 33.2° 16.1° 26.9° 64.2% 8.0 MPH 66.6w/m2
11/26/2011 0.04" 0.00" 0.00" 0.00" 32.5° 12.8° 22.4° 16.6% 3.4 MPH 122.1w/m2
11/27/2011 0.06" 0.00" 0.00" 0.00" 51.4° 26.4° 38.0° 22.5% 2.0 MPH 123.9w/m2
11/28/2011 0.04" 0.00" 0.00" 0.00" 48.6° 34.4° 40.3° 40.1% 2.6 MPH 82.6w/m2
11/29/2011 0.05" 0.00" 0.00" 0.00" 43.9° 27.0° 35.1° 47.5% 2.5 MPH 122.6w/m2
11/30/2011 0.04" 0.00" 0.00" 0.00" 38.8° 18.8° 30.1° 97.1% 6.7 MPH 101.2w/m2
Totals: 1.32" 0.00" 0.83" -0.66" 51.4° 12.8° 28.7° 60.7% 5.1 MPH 100.4w/m2